sensor_id;sensor_type;location;lat;lon;timestamp;P1;durP1;ratioP1;P2;durP2;ratioP2
9224;SDS011;4647;48.072;11.616;2023-07-29T00:00:19;4.77;;;4.37;;
9224;SDS011;4647;48.072;11.616;2023-07-29T00:02:48;5.60;;;4.40;;
9224;SDS011;4647;48.072;11.616;2023-07-29T00:05:19;7.43;;;4.30;;
9224;SDS011;4647;48.072;11.616;2023-07-29T00:07:47;5.53;;;4.10;;
9224;SDS011;4647;48.072;11.616;2023-07-29T00:10:15;5.13;;;4.00;;
9224;SDS011;4647;48.072;11.616;2023-07-29T00:12:44;5.47;;;4.27;;
9224;SDS011;4647;48.072;11.616;2023-07-29T00:15:12;4.53;;;4.13;;
9224;SDS011;4647;48.072;11.616;2023-07-29T00:17:41;5.07;;;4.57;;
9224;SDS011;4647;48.072;11.616;2023-07-29T00:20:09;5.43;;;4.10;;
9224;SDS011;4647;48.072;11.616;2023-07-29T00:22:40;4.43;;;4.03;;
9224;SDS011;4647;48.072;11.616;2023-07-29T00:25:09;5.37;;;4.80;;
9224;SDS011;4647;48.072;11.616;2023-07-29T00:27:37;5.60;;;4.60;;
9224;SDS011;4647;48.072;11.616;2023-07-29T00:30:06;5.13;;;4.70;;
9224;SDS011;4647;48.072;11.616;2023-07-29T00:32:35;4.90;;;4.50;;
9224;SDS011;4647;48.072;11.616;2023-07-29T00:35:04;4.80;;;4.40;;
9224;SDS011;4647;48.072;11.616;2023-07-29T00:37:34;5.93;;;4.10;;
9224;SDS011;4647;48.072;11.616;2023-07-29T00:40:06;4.50;;;4.10;;
9224;SDS011;4647;48.072;11.616;2023-07-29T00:42:42;5.40;;;3.87;;
9224;SDS011;4647;48.072;11.616;2023-07-29T00:45:11;5.60;;;4.10;;
9224;SDS011;4647;48.072;11.616;2023-07-29T00:47:40;4.80;;;4.30;;
9224;SDS011;4647;48.072;11.616;2023-07-29T00:50:10;4.40;;;3.97;;
9224;SDS011;4647;48.072;11.616;2023-07-29T00:52:39;4.43;;;3.80;;
9224;SDS011;4647;48.072;11.616;2023-07-29T00:55:10;5.20;;;4.10;;
9224;SDS011;4647;48.072;11.616;2023-07-29T00:57:39;4.23;;;3.90;;
9224;SDS011;4647;48.072;11.616;2023-07-29T01:00:13;5.57;;;4.43;;
9224;SDS011;4647;48.072;11.616;2023-07-29T01:02:42;5.60;;;4.10;;
9224;SDS011;4647;48.072;11.616;2023-07-29T01:05:11;3.93;;;3.57;;
9224;SDS011;4647;48.072;11.616;2023-07-29T01:07:44;3.87;;;3.57;;
9224;SDS011;4647;48.072;11.616;2023-07-29T01:10:21;6.90;;;4.10;;
9224;SDS011;4647;48.072;11.616;2023-07-29T01:13:01;4.90;;;4.00;;
9224;SDS011;4647;48.072;11.616;2023-07-29T01:15:36;4.33;;;3.87;;
9224;SDS011;4647;48.072;11.616;2023-07-29T01:18:14;4.30;;;3.90;;
9224;SDS011;4647;48.072;11.616;2023-07-29T01:20:57;5.60;;;4.10;;
9224;SDS011;4647;48.072;11.616;2023-07-29T01:23:31;4.60;;;4.00;;
9224;SDS011;4647;48.072;11.616;2023-07-29T01:26:00;4.40;;;4.00;;
9224;SDS011;4647;48.072;11.616;2023-07-29T01:31:07;4.90;;;4.20;;
9224;SDS011;4647;48.072;11.616;2023-07-29T01:33:45;4.40;;;3.50;;
9224;SDS011;4647;48.072;11.616;2023-07-29T01:36:21;4.60;;;4.13;;
9224;SDS011;4647;48.072;11.616;2023-07-29T01:38:58;6.50;;;3.80;;
9224;SDS011;4647;48.072;11.616;2023-07-29T01:41:29;5.57;;;3.97;;
9224;SDS011;4647;48.072;11.616;2023-07-29T01:43:58;5.17;;;4.67;;
9224;SDS011;4647;48.072;11.616;2023-07-29T01:46:27;4.90;;;4.40;;
9224;SDS011;4647;48.072;11.616;2023-07-29T01:48:55;6.50;;;4.13;;
9224;SDS011;4647;48.072;11.616;2023-07-29T01:51:24;6.57;;;3.80;;
9224;SDS011;4647;48.072;11.616;2023-07-29T01:53:52;4.83;;;4.33;;
9224;SDS011;4647;48.072;11.616;2023-07-29T01:56:23;4.43;;;3.87;;
9224;SDS011;4647;48.072;11.616;2023-07-29T01:58:53;4.40;;;4.00;;
9224;SDS011;4647;48.072;11.616;2023-07-29T02:01:21;5.33;;;3.90;;
9224;SDS011;4647;48.072;11.616;2023-07-29T02:03:50;5.33;;;4.13;;
9224;SDS011;4647;48.072;11.616;2023-07-29T02:06:20;4.40;;;4.00;;
9224;SDS011;4647;48.072;11.616;2023-07-29T02:08:49;6.80;;;3.97;;
9224;SDS011;4647;48.072;11.616;2023-07-29T02:11:17;5.03;;;4.23;;
9224;SDS011;4647;48.072;11.616;2023-07-29T02:13:54;5.17;;;4.00;;
9224;SDS011;4647;48.072;11.616;2023-07-29T02:16:23;6.30;;;4.03;;
9224;SDS011;4647;48.072;11.616;2023-07-29T02:18:51;4.57;;;4.03;;
9224;SDS011;4647;48.072;11.616;2023-07-29T02:21:20;5.00;;;3.67;;
9224;SDS011;4647;48.072;11.616;2023-07-29T02:23:48;6.27;;;4.47;;
9224;SDS011;4647;48.072;11.616;2023-07-29T02:26:17;6.30;;;3.97;;
9224;SDS011;4647;48.072;11.616;2023-07-29T02:28:45;5.43;;;3.90;;
9224;SDS011;4647;48.072;11.616;2023-07-29T02:31:17;4.17;;;3.77;;
9224;SDS011;4647;48.072;11.616;2023-07-29T02:33:48;4.60;;;3.83;;
9224;SDS011;4647;48.072;11.616;2023-07-29T02:36:17;5.33;;;3.63;;
9224;SDS011;4647;48.072;11.616;2023-07-29T02:38:46;4.67;;;4.27;;
9224;SDS011;4647;48.072;11.616;2023-07-29T02:41:14;4.40;;;4.00;;
9224;SDS011;4647;48.072;11.616;2023-07-29T02:43:43;4.37;;;4.00;;
9224;SDS011;4647;48.072;11.616;2023-07-29T02:46:11;5.90;;;3.60;;
9224;SDS011;4647;48.072;11.616;2023-07-29T02:48:42;5.37;;;4.27;;
9224;SDS011;4647;48.072;11.616;2023-07-29T02:51:12;5.83;;;4.03;;
9224;SDS011;4647;48.072;11.616;2023-07-29T02:53:40;4.93;;;4.20;;
9224;SDS011;4647;48.072;11.616;2023-07-29T02:56:08;4.57;;;4.17;;
9224;SDS011;4647;48.072;11.616;2023-07-29T02:58:37;4.80;;;4.40;;
9224;SDS011;4647;48.072;11.616;2023-07-29T03:01:05;4.50;;;4.00;;
9224;SDS011;4647;48.072;11.616;2023-07-29T03:03:34;6.17;;;4.30;;
9224;SDS011;4647;48.072;11.616;2023-07-29T03:06:05;6.73;;;4.60;;
9224;SDS011;4647;48.072;11.616;2023-07-29T03:08:35;6.27;;;4.17;;
9224;SDS011;4647;48.072;11.616;2023-07-29T03:11:05;5.23;;;4.50;;
9224;SDS011;4647;48.072;11.616;2023-07-29T03:13:35;5.90;;;4.30;;
9224;SDS011;4647;48.072;11.616;2023-07-29T03:16:06;6.50;;;4.27;;
9224;SDS011;4647;48.072;11.616;2023-07-29T03:18:35;5.97;;;3.83;;
9224;SDS011;4647;48.072;11.616;2023-07-29T03:21:07;5.80;;;3.73;;
9224;SDS011;4647;48.072;11.616;2023-07-29T03:23:36;4.27;;;3.50;;
9224;SDS011;4647;48.072;11.616;2023-07-29T03:26:06;6.67;;;4.00;;
9224;SDS011;4647;48.072;11.616;2023-07-29T03:28:38;4.70;;;4.20;;
9224;SDS011;4647;48.072;11.616;2023-07-29T03:31:08;8.73;;;4.37;;
9224;SDS011;4647;48.072;11.616;2023-07-29T03:33:37;6.00;;;4.37;;
9224;SDS011;4647;48.072;11.616;2023-07-29T03:36:08;4.47;;;4.07;;
9224;SDS011;4647;48.072;11.616;2023-07-29T03:38:37;5.30;;;3.57;;
9224;SDS011;4647;48.072;11.616;2023-07-29T03:41:06;4.93;;;4.40;;
9224;SDS011;4647;48.072;11.616;2023-07-29T03:43:34;4.43;;;3.80;;
9224;SDS011;4647;48.072;11.616;2023-07-29T03:46:03;4.07;;;3.60;;
9224;SDS011;4647;48.072;11.616;2023-07-29T03:48:31;3.80;;;3.50;;
9224;SDS011;4647;48.072;11.616;2023-07-29T03:51:01;4.93;;;3.90;;
9224;SDS011;4647;48.072;11.616;2023-07-29T03:53:32;5.03;;;4.00;;
9224;SDS011;4647;48.072;11.616;2023-07-29T03:56:00;5.27;;;3.60;;
9224;SDS011;4647;48.072;11.616;2023-07-29T03:58:29;7.03;;;3.20;;
9224;SDS011;4647;48.072;11.616;2023-07-29T04:00:57;4.00;;;3.10;;
9224;SDS011;4647;48.072;11.616;2023-07-29T04:03:26;6.13;;;3.40;;
9224;SDS011;4647;48.072;11.616;2023-07-29T04:05:54;4.37;;;3.57;;
9224;SDS011;4647;48.072;11.616;2023-07-29T04:08:22;6.27;;;3.50;;
9224;SDS011;4647;48.072;11.616;2023-07-29T04:10:53;4.37;;;3.17;;
9224;SDS011;4647;48.072;11.616;2023-07-29T04:13:22;3.90;;;3.50;;
9224;SDS011;4647;48.072;11.616;2023-07-29T04:15:50;5.53;;;3.30;;
9224;SDS011;4647;48.072;11.616;2023-07-29T04:18:19;3.87;;;3.27;;
9224;SDS011;4647;48.072;11.616;2023-07-29T04:20:47;5.37;;;3.50;;
9224;SDS011;4647;48.072;11.616;2023-07-29T04:23:16;6.37;;;3.30;;
9224;SDS011;4647;48.072;11.616;2023-07-29T04:25:44;4.90;;;3.43;;
9224;SDS011;4647;48.072;11.616;2023-07-29T04:28:15;3.87;;;3.33;;
9224;SDS011;4647;48.072;11.616;2023-07-29T04:30:43;3.37;;;3.07;;
9224;SDS011;4647;48.072;11.616;2023-07-29T04:33:12;2.87;;;2.67;;
9224;SDS011;4647;48.072;11.616;2023-07-29T04:35:40;4.33;;;3.13;;
9224;SDS011;4647;48.072;11.616;2023-07-29T04:38:09;4.03;;;3.03;;
9224;SDS011;4647;48.072;11.616;2023-07-29T04:40:37;3.20;;;2.90;;
9224;SDS011;4647;48.072;11.616;2023-07-29T04:43:06;3.10;;;2.90;;
9224;SDS011;4647;48.072;11.616;2023-07-29T04:45:37;3.03;;;2.70;;
9224;SDS011;4647;48.072;11.616;2023-07-29T04:48:10;3.40;;;2.50;;
9224;SDS011;4647;48.072;11.616;2023-07-29T04:50:39;4.33;;;2.70;;
9224;SDS011;4647;48.072;11.616;2023-07-29T04:53:07;2.67;;;2.47;;
9224;SDS011;4647;48.072;11.616;2023-07-29T04:55:35;4.27;;;3.10;;
9224;SDS011;4647;48.072;11.616;2023-07-29T04:58:04;3.03;;;2.83;;
9224;SDS011;4647;48.072;11.616;2023-07-29T05:00:32;3.83;;;2.93;;
9224;SDS011;4647;48.072;11.616;2023-07-29T05:03:04;3.50;;;2.37;;
9224;SDS011;4647;48.072;11.616;2023-07-29T05:05:32;2.70;;;2.50;;
9224;SDS011;4647;48.072;11.616;2023-07-29T05:08:00;2.63;;;2.43;;
9224;SDS011;4647;48.072;11.616;2023-07-29T05:10:29;2.97;;;2.67;;
9224;SDS011;4647;48.072;11.616;2023-07-29T05:12:57;4.10;;;2.30;;
9224;SDS011;4647;48.072;11.616;2023-07-29T05:15:25;2.60;;;2.40;;
9224;SDS011;4647;48.072;11.616;2023-07-29T05:17:54;2.50;;;2.30;;
9224;SDS011;4647;48.072;11.616;2023-07-29T05:20:25;4.60;;;2.50;;
9224;SDS011;4647;48.072;11.616;2023-07-29T05:22:53;3.33;;;2.47;;
9224;SDS011;4647;48.072;11.616;2023-07-29T05:25:22;2.50;;;2.30;;
9224;SDS011;4647;48.072;11.616;2023-07-29T05:27:50;2.53;;;2.07;;
9224;SDS011;4647;48.072;11.616;2023-07-29T05:30:18;3.93;;;2.30;;
9224;SDS011;4647;48.072;11.616;2023-07-29T05:32:47;2.30;;;2.10;;
9224;SDS011;4647;48.072;11.616;2023-07-29T05:35:15;5.00;;;2.30;;
9224;SDS011;4647;48.072;11.616;2023-07-29T05:37:47;3.37;;;2.40;;
9224;SDS011;4647;48.072;11.616;2023-07-29T05:40:16;2.23;;;2.03;;
9224;SDS011;4647;48.072;11.616;2023-07-29T05:42:44;2.60;;;2.30;;
9224;SDS011;4647;48.072;11.616;2023-07-29T05:45:13;2.67;;;2.00;;
9224;SDS011;4647;48.072;11.616;2023-07-29T05:47:41;4.17;;;2.10;;
9224;SDS011;4647;48.072;11.616;2023-07-29T05:50:13;6.60;;;2.30;;
9224;SDS011;4647;48.072;11.616;2023-07-29T05:52:44;2.63;;;2.30;;
9224;SDS011;4647;48.072;11.616;2023-07-29T05:55:14;3.23;;;2.57;;
9224;SDS011;4647;48.072;11.616;2023-07-29T05:57:43;3.27;;;2.50;;
9224;SDS011;4647;48.072;11.616;2023-07-29T06:00:12;4.07;;;2.10;;
9224;SDS011;4647;48.072;11.616;2023-07-29T06:02:40;3.17;;;2.10;;
9224;SDS011;4647;48.072;11.616;2023-07-29T06:05:09;2.30;;;2.10;;
9224;SDS011;4647;48.072;11.616;2023-07-29T06:07:37;2.40;;;2.20;;
9224;SDS011;4647;48.072;11.616;2023-07-29T06:10:09;3.07;;;2.20;;
9224;SDS011;4647;48.072;11.616;2023-07-29T06:12:40;6.50;;;2.53;;
9224;SDS011;4647;48.072;11.616;2023-07-29T06:15:09;2.57;;;2.20;;
9224;SDS011;4647;48.072;11.616;2023-07-29T06:17:38;3.00;;;2.30;;
9224;SDS011;4647;48.072;11.616;2023-07-29T06:20:07;4.17;;;2.47;;
9224;SDS011;4647;48.072;11.616;2023-07-29T06:22:36;4.60;;;2.40;;
9224;SDS011;4647;48.072;11.616;2023-07-29T06:25:04;4.90;;;2.43;;
9224;SDS011;4647;48.072;11.616;2023-07-29T06:27:33;2.87;;;2.40;;
9224;SDS011;4647;48.072;11.616;2023-07-29T06:30:04;3.27;;;2.30;;
9224;SDS011;4647;48.072;11.616;2023-07-29T06:32:34;4.53;;;2.33;;
9224;SDS011;4647;48.072;11.616;2023-07-29T06:35:02;5.43;;;2.60;;
9224;SDS011;4647;48.072;11.616;2023-07-29T06:37:31;3.67;;;2.70;;
9224;SDS011;4647;48.072;11.616;2023-07-29T06:40:00;5.33;;;2.13;;
9224;SDS011;4647;48.072;11.616;2023-07-29T06:42:28;4.83;;;2.37;;
9224;SDS011;4647;48.072;11.616;2023-07-29T06:44:57;5.70;;;2.40;;
9224;SDS011;4647;48.072;11.616;2023-07-29T06:47:28;5.60;;;2.40;;
9224;SDS011;4647;48.072;11.616;2023-07-29T06:49:56;3.43;;;2.20;;
9224;SDS011;4647;48.072;11.616;2023-07-29T06:52:24;3.30;;;2.70;;
9224;SDS011;4647;48.072;11.616;2023-07-29T06:54:53;2.73;;;2.40;;
9224;SDS011;4647;48.072;11.616;2023-07-29T06:57:21;3.30;;;2.17;;
9224;SDS011;4647;48.072;11.616;2023-07-29T06:59:51;4.27;;;2.20;;
9224;SDS011;4647;48.072;11.616;2023-07-29T07:02:19;2.93;;;2.60;;
9224;SDS011;4647;48.072;11.616;2023-07-29T07:04:50;3.77;;;2.53;;
9224;SDS011;4647;48.072;11.616;2023-07-29T07:07:18;2.60;;;2.40;;
9224;SDS011;4647;48.072;11.616;2023-07-29T07:09:47;4.73;;;2.80;;
9224;SDS011;4647;48.072;11.616;2023-07-29T07:12:17;3.90;;;2.63;;
9224;SDS011;4647;48.072;11.616;2023-07-29T07:14:45;5.47;;;2.63;;
9224;SDS011;4647;48.072;11.616;2023-07-29T07:17:13;4.80;;;3.20;;
9224;SDS011;4647;48.072;11.616;2023-07-29T07:19:43;4.23;;;2.80;;
9224;SDS011;4647;48.072;11.616;2023-07-29T07:22:14;2.90;;;2.60;;
9224;SDS011;4647;48.072;11.616;2023-07-29T07:24:42;6.67;;;2.60;;
9224;SDS011;4647;48.072;11.616;2023-07-29T07:27:11;3.87;;;2.80;;
9224;SDS011;4647;48.072;11.616;2023-07-29T07:29:39;4.83;;;2.87;;
9224;SDS011;4647;48.072;11.616;2023-07-29T07:32:08;3.83;;;3.07;;
9224;SDS011;4647;48.072;11.616;2023-07-29T07:34:36;3.33;;;2.70;;
9224;SDS011;4647;48.072;11.616;2023-07-29T07:37:05;4.90;;;2.70;;
9224;SDS011;4647;48.072;11.616;2023-07-29T07:39:36;2.87;;;2.57;;
9224;SDS011;4647;48.072;11.616;2023-07-29T07:42:05;3.93;;;3.03;;
9224;SDS011;4647;48.072;11.616;2023-07-29T07:44:33;5.63;;;2.80;;
9224;SDS011;4647;48.072;11.616;2023-07-29T07:47:02;4.13;;;3.30;;
9224;SDS011;4647;48.072;11.616;2023-07-29T07:49:30;3.67;;;3.20;;
9224;SDS011;4647;48.072;11.616;2023-07-29T07:51:59;3.47;;;2.90;;
9224;SDS011;4647;48.072;11.616;2023-07-29T07:54:27;3.40;;;3.10;;
9224;SDS011;4647;48.072;11.616;2023-07-29T07:56:58;4.17;;;2.90;;
9224;SDS011;4647;48.072;11.616;2023-07-29T07:59:26;3.80;;;3.50;;
9224;SDS011;4647;48.072;11.616;2023-07-29T08:01:55;4.20;;;3.80;;
9224;SDS011;4647;48.072;11.616;2023-07-29T08:04:23;6.23;;;3.20;;
9224;SDS011;4647;48.072;11.616;2023-07-29T08:06:52;4.10;;;3.30;;
9224;SDS011;4647;48.072;11.616;2023-07-29T08:09:20;3.87;;;3.50;;
9224;SDS011;4647;48.072;11.616;2023-07-29T08:11:49;6.70;;;3.77;;
9224;SDS011;4647;48.072;11.616;2023-07-29T08:14:20;4.27;;;3.33;;
9224;SDS011;4647;48.072;11.616;2023-07-29T08:16:48;6.13;;;3.23;;
9224;SDS011;4647;48.072;11.616;2023-07-29T08:19:16;3.63;;;3.17;;
9224;SDS011;4647;48.072;11.616;2023-07-29T08:21:45;4.47;;;3.17;;
9224;SDS011;4647;48.072;11.616;2023-07-29T08:24:13;3.30;;;3.00;;
9224;SDS011;4647;48.072;11.616;2023-07-29T08:26:42;3.50;;;3.20;;
9224;SDS011;4647;48.072;11.616;2023-07-29T08:29:10;3.60;;;3.30;;
9224;SDS011;4647;48.072;11.616;2023-07-29T08:31:41;3.80;;;3.50;;
9224;SDS011;4647;48.072;11.616;2023-07-29T08:34:09;4.17;;;3.23;;
9224;SDS011;4647;48.072;11.616;2023-07-29T08:36:38;5.50;;;3.20;;
9224;SDS011;4647;48.072;11.616;2023-07-29T08:39:06;5.37;;;3.27;;
9224;SDS011;4647;48.072;11.616;2023-07-29T08:41:36;4.37;;;3.03;;
9224;SDS011;4647;48.072;11.616;2023-07-29T08:44:09;4.57;;;3.30;;
9224;SDS011;4647;48.072;11.616;2023-07-29T08:46:48;3.60;;;3.30;;
9224;SDS011;4647;48.072;11.616;2023-07-29T08:49:19;3.87;;;3.10;;
9224;SDS011;4647;48.072;11.616;2023-07-29T08:51:48;3.37;;;3.07;;
9224;SDS011;4647;48.072;11.616;2023-07-29T08:54:17;4.30;;;3.20;;
9224;SDS011;4647;48.072;11.616;2023-07-29T08:56:46;3.30;;;3.00;;
9224;SDS011;4647;48.072;11.616;2023-07-29T08:59:15;4.13;;;3.37;;
9224;SDS011;4647;48.072;11.616;2023-07-29T09:01:44;3.67;;;3.10;;
9224;SDS011;4647;48.072;11.616;2023-07-29T09:04:17;3.57;;;3.13;;
9224;SDS011;4647;48.072;11.616;2023-07-29T09:06:45;4.13;;;3.17;;
9224;SDS011;4647;48.072;11.616;2023-07-29T09:09:15;3.80;;;3.07;;
9224;SDS011;4647;48.072;11.616;2023-07-29T09:11:44;3.77;;;3.00;;
9224;SDS011;4647;48.072;11.616;2023-07-29T09:14:12;4.80;;;3.00;;
9224;SDS011;4647;48.072;11.616;2023-07-29T09:16:42;4.77;;;3.00;;
9224;SDS011;4647;48.072;11.616;2023-07-29T09:19:11;3.77;;;2.83;;
9224;SDS011;4647;48.072;11.616;2023-07-29T09:21:42;3.80;;;3.37;;
9224;SDS011;4647;48.072;11.616;2023-07-29T09:24:15;4.40;;;3.50;;
9224;SDS011;4647;48.072;11.616;2023-07-29T09:26:48;4.20;;;3.50;;
9224;SDS011;4647;48.072;11.616;2023-07-29T09:29:21;3.57;;;3.13;;
9224;SDS011;4647;48.072;11.616;2023-07-29T09:31:50;5.33;;;2.90;;
9224;SDS011;4647;48.072;11.616;2023-07-29T09:34:18;4.70;;;3.10;;
9224;SDS011;4647;48.072;11.616;2023-07-29T09:36:50;4.00;;;3.60;;
9224;SDS011;4647;48.072;11.616;2023-07-29T09:39:18;3.77;;;3.40;;
9224;SDS011;4647;48.072;11.616;2023-07-29T09:41:50;3.67;;;3.37;;
9224;SDS011;4647;48.072;11.616;2023-07-29T09:44:19;3.60;;;3.30;;
9224;SDS011;4647;48.072;11.616;2023-07-29T09:46:47;3.47;;;3.17;;
9224;SDS011;4647;48.072;11.616;2023-07-29T09:49:16;3.97;;;3.40;;
9224;SDS011;4647;48.072;11.616;2023-07-29T09:51:44;4.10;;;3.70;;
9224;SDS011;4647;48.072;11.616;2023-07-29T09:54:15;3.90;;;3.50;;
9224;SDS011;4647;48.072;11.616;2023-07-29T09:56:44;3.77;;;3.37;;
9224;SDS011;4647;48.072;11.616;2023-07-29T09:59:13;11.77;;;8.40;;
9224;SDS011;4647;48.072;11.616;2023-07-29T10:01:41;5.83;;;4.60;;
9224;SDS011;4647;48.072;11.616;2023-07-29T10:04:10;5.13;;;3.60;;
9224;SDS011;4647;48.072;11.616;2023-07-29T10:06:41;6.33;;;4.60;;
9224;SDS011;4647;48.072;11.616;2023-07-29T10:09:11;5.37;;;4.00;;
9224;SDS011;4647;48.072;11.616;2023-07-29T10:11:42;3.73;;;3.43;;
9224;SDS011;4647;48.072;11.616;2023-07-29T10:14:12;4.10;;;3.70;;
9224;SDS011;4647;48.072;11.616;2023-07-29T10:16:41;4.30;;;3.93;;
9224;SDS011;4647;48.072;11.616;2023-07-29T10:19:12;4.23;;;3.50;;
9224;SDS011;4647;48.072;11.616;2023-07-29T10:21:44;4.10;;;3.80;;
9224;SDS011;4647;48.072;11.616;2023-07-29T10:27:29;5.23;;;3.60;;
9224;SDS011;4647;48.072;11.616;2023-07-29T10:30:01;5.97;;;4.00;;
9224;SDS011;4647;48.072;11.616;2023-07-29T10:32:30;4.13;;;3.83;;
9224;SDS011;4647;48.072;11.616;2023-07-29T10:35:02;4.10;;;3.73;;
9224;SDS011;4647;48.072;11.616;2023-07-29T10:37:31;3.97;;;3.60;;
9224;SDS011;4647;48.072;11.616;2023-07-29T10:40:00;4.30;;;3.40;;
9224;SDS011;4647;48.072;11.616;2023-07-29T10:42:38;3.70;;;3.40;;
9224;SDS011;4647;48.072;11.616;2023-07-29T10:45:27;4.10;;;3.70;;
9224;SDS011;4647;48.072;11.616;2023-07-29T10:48:05;3.83;;;3.50;;
9224;SDS011;4647;48.072;11.616;2023-07-29T10:50:34;4.53;;;3.50;;
9224;SDS011;4647;48.072;11.616;2023-07-29T10:53:03;4.47;;;3.70;;
9224;SDS011;4647;48.072;11.616;2023-07-29T10:55:32;5.20;;;3.43;;
9224;SDS011;4647;48.072;11.616;2023-07-29T10:58:16;4.30;;;3.70;;
9224;SDS011;4647;48.072;11.616;2023-07-29T11:00:45;4.00;;;3.57;;
9224;SDS011;4647;48.072;11.616;2023-07-29T11:03:13;4.00;;;3.60;;
9224;SDS011;4647;48.072;11.616;2023-07-29T11:05:49;4.03;;;3.73;;
9224;SDS011;4647;48.072;11.616;2023-07-29T11:08:22;4.07;;;3.57;;
9224;SDS011;4647;48.072;11.616;2023-07-29T11:11:01;4.10;;;3.70;;
9224;SDS011;4647;48.072;11.616;2023-07-29T11:13:34;4.40;;;3.67;;
9224;SDS011;4647;48.072;11.616;2023-07-29T11:16:04;5.17;;;3.67;;
9224;SDS011;4647;48.072;11.616;2023-07-29T11:18:34;4.43;;;3.80;;
9224;SDS011;4647;48.072;11.616;2023-07-29T11:21:04;4.73;;;3.80;;
9224;SDS011;4647;48.072;11.616;2023-07-29T11:23:34;3.63;;;3.33;;
9224;SDS011;4647;48.072;11.616;2023-07-29T11:26:03;4.13;;;3.83;;
9224;SDS011;4647;48.072;11.616;2023-07-29T11:28:40;3.97;;;3.67;;
9224;SDS011;4647;48.072;11.616;2023-07-29T11:31:08;6.10;;;4.03;;
9224;SDS011;4647;48.072;11.616;2023-07-29T11:33:38;5.30;;;3.80;;
9224;SDS011;4647;48.072;11.616;2023-07-29T11:36:16;4.03;;;3.63;;
9224;SDS011;4647;48.072;11.616;2023-07-29T11:38:46;3.33;;;2.90;;
9224;SDS011;4647;48.072;11.616;2023-07-29T11:41:18;3.53;;;2.50;;
9224;SDS011;4647;48.072;11.616;2023-07-29T11:43:50;2.90;;;2.60;;
9224;SDS011;4647;48.072;11.616;2023-07-29T11:46:20;3.40;;;2.80;;
9224;SDS011;4647;48.072;11.616;2023-07-29T11:48:50;4.30;;;2.70;;
9224;SDS011;4647;48.072;11.616;2023-07-29T11:51:18;3.00;;;2.70;;
9224;SDS011;4647;48.072;11.616;2023-07-29T11:53:48;4.07;;;3.00;;
9224;SDS011;4647;48.072;11.616;2023-07-29T11:56:17;3.50;;;2.70;;
9224;SDS011;4647;48.072;11.616;2023-07-29T11:58:46;3.10;;;2.80;;
9224;SDS011;4647;48.072;11.616;2023-07-29T12:01:18;4.20;;;2.60;;
9224;SDS011;4647;48.072;11.616;2023-07-29T12:03:50;4.53;;;2.90;;
9224;SDS011;4647;48.072;11.616;2023-07-29T12:06:19;3.20;;;2.90;;
9224;SDS011;4647;48.072;11.616;2023-07-29T12:08:48;3.20;;;2.90;;
9224;SDS011;4647;48.072;11.616;2023-07-29T12:11:24;3.67;;;2.97;;
9224;SDS011;4647;48.072;11.616;2023-07-29T12:13:55;3.47;;;2.97;;
9224;SDS011;4647;48.072;11.616;2023-07-29T12:16:27;3.17;;;2.87;;
9224;SDS011;4647;48.072;11.616;2023-07-29T12:19:00;4.17;;;3.00;;
9224;SDS011;4647;48.072;11.616;2023-07-29T12:21:28;4.50;;;3.27;;
9224;SDS011;4647;48.072;11.616;2023-07-29T12:23:57;3.97;;;3.00;;
9224;SDS011;4647;48.072;11.616;2023-07-29T12:26:27;3.97;;;3.27;;
9224;SDS011;4647;48.072;11.616;2023-07-29T12:28:59;4.03;;;2.90;;
9224;SDS011;4647;48.072;11.616;2023-07-29T12:31:30;4.30;;;3.00;;
9224;SDS011;4647;48.072;11.616;2023-07-29T12:34:00;3.80;;;3.23;;
9224;SDS011;4647;48.072;11.616;2023-07-29T12:36:39;3.10;;;2.90;;
9224;SDS011;4647;48.072;11.616;2023-07-29T12:39:16;3.37;;;3.07;;
9224;SDS011;4647;48.072;11.616;2023-07-29T12:41:45;3.60;;;3.13;;
9224;SDS011;4647;48.072;11.616;2023-07-29T12:44:16;3.77;;;3.47;;
9224;SDS011;4647;48.072;11.616;2023-07-29T12:46:45;4.53;;;3.17;;
9224;SDS011;4647;48.072;11.616;2023-07-29T12:49:14;3.60;;;3.37;;
9224;SDS011;4647;48.072;11.616;2023-07-29T12:51:42;3.43;;;3.00;;
9224;SDS011;4647;48.072;11.616;2023-07-29T12:54:11;4.73;;;3.30;;
9224;SDS011;4647;48.072;11.616;2023-07-29T12:56:39;4.87;;;3.33;;
9224;SDS011;4647;48.072;11.616;2023-07-29T12:59:08;4.50;;;2.93;;
9224;SDS011;4647;48.072;11.616;2023-07-29T13:01:40;3.73;;;3.40;;
9224;SDS011;4647;48.072;11.616;2023-07-29T13:04:09;3.73;;;3.17;;
9224;SDS011;4647;48.072;11.616;2023-07-29T13:06:37;4.40;;;3.30;;
9224;SDS011;4647;48.072;11.616;2023-07-29T13:09:06;4.17;;;3.77;;
9224;SDS011;4647;48.072;11.616;2023-07-29T13:11:34;5.40;;;3.40;;
9224;SDS011;4647;48.072;11.616;2023-07-29T13:14:03;4.63;;;3.67;;
9224;SDS011;4647;48.072;11.616;2023-07-29T13:16:31;5.17;;;3.50;;
9224;SDS011;4647;48.072;11.616;2023-07-29T13:19:02;5.17;;;3.37;;
9224;SDS011;4647;48.072;11.616;2023-07-29T13:21:31;6.10;;;3.63;;
9224;SDS011;4647;48.072;11.616;2023-07-29T13:24:00;4.50;;;3.87;;
9224;SDS011;4647;48.072;11.616;2023-07-29T13:26:29;4.10;;;3.80;;
9224;SDS011;4647;48.072;11.616;2023-07-29T13:28:57;5.20;;;4.50;;
9224;SDS011;4647;48.072;11.616;2023-07-29T13:31:26;6.10;;;4.13;;
9224;SDS011;4647;48.072;11.616;2023-07-29T13:33:54;6.57;;;4.30;;
9224;SDS011;4647;48.072;11.616;2023-07-29T13:36:25;6.67;;;4.47;;
9224;SDS011;4647;48.072;11.616;2023-07-29T13:38:53;5.63;;;4.57;;
9224;SDS011;4647;48.072;11.616;2023-07-29T13:41:22;4.77;;;4.27;;
9224;SDS011;4647;48.072;11.616;2023-07-29T13:43:51;4.70;;;4.10;;
9224;SDS011;4647;48.072;11.616;2023-07-29T13:46:19;4.90;;;4.40;;
9224;SDS011;4647;48.072;11.616;2023-07-29T13:48:48;4.90;;;4.10;;
9224;SDS011;4647;48.072;11.616;2023-07-29T13:51:16;5.40;;;4.33;;
9224;SDS011;4647;48.072;11.616;2023-07-29T13:53:47;4.97;;;4.20;;
9224;SDS011;4647;48.072;11.616;2023-07-29T13:56:16;9.90;;;4.63;;
9224;SDS011;4647;48.072;11.616;2023-07-29T13:58:44;6.50;;;4.40;;
9224;SDS011;4647;48.072;11.616;2023-07-29T14:01:13;5.70;;;4.40;;
9224;SDS011;4647;48.072;11.616;2023-07-29T14:03:41;5.47;;;4.67;;
9224;SDS011;4647;48.072;11.616;2023-07-29T14:06:09;5.30;;;4.20;;
9224;SDS011;4647;48.072;11.616;2023-07-29T14:08:38;5.67;;;4.20;;
9224;SDS011;4647;48.072;11.616;2023-07-29T14:11:10;6.13;;;4.47;;
9224;SDS011;4647;48.072;11.616;2023-07-29T14:13:39;4.97;;;4.57;;
9224;SDS011;4647;48.072;11.616;2023-07-29T14:16:07;5.70;;;4.77;;
9224;SDS011;4647;48.072;11.616;2023-07-29T14:18:36;6.47;;;4.10;;
9224;SDS011;4647;48.072;11.616;2023-07-29T14:21:05;4.97;;;4.07;;
9224;SDS011;4647;48.072;11.616;2023-07-29T14:23:33;5.30;;;4.07;;
9224;SDS011;4647;48.072;11.616;2023-07-29T14:26:02;6.20;;;4.07;;
9224;SDS011;4647;48.072;11.616;2023-07-29T14:28:33;5.20;;;4.13;;
9224;SDS011;4647;48.072;11.616;2023-07-29T14:31:01;4.73;;;3.97;;
9224;SDS011;4647;48.072;11.616;2023-07-29T14:33:30;5.97;;;3.80;;
9224;SDS011;4647;48.072;11.616;2023-07-29T14:36:00;4.20;;;3.63;;
9224;SDS011;4647;48.072;11.616;2023-07-29T14:38:28;5.60;;;4.00;;
9224;SDS011;4647;48.072;11.616;2023-07-29T14:40:57;5.67;;;4.00;;
9224;SDS011;4647;48.072;11.616;2023-07-29T14:43:25;4.10;;;3.70;;
9224;SDS011;4647;48.072;11.616;2023-07-29T14:45:56;4.67;;;3.83;;
9224;SDS011;4647;48.072;11.616;2023-07-29T14:48:25;4.23;;;3.90;;
9224;SDS011;4647;48.072;11.616;2023-07-29T14:50:53;4.63;;;3.90;;
9224;SDS011;4647;48.072;11.616;2023-07-29T14:53:22;5.23;;;3.87;;
9224;SDS011;4647;48.072;11.616;2023-07-29T14:55:50;4.20;;;3.80;;
9224;SDS011;4647;48.072;11.616;2023-07-29T14:58:19;4.03;;;3.63;;
9224;SDS011;4647;48.072;11.616;2023-07-29T15:00:50;5.37;;;3.87;;
9224;SDS011;4647;48.072;11.616;2023-07-29T15:03:21;3.87;;;3.50;;
9224;SDS011;4647;48.072;11.616;2023-07-29T15:05:50;5.90;;;3.90;;
9224;SDS011;4647;48.072;11.616;2023-07-29T15:08:18;6.30;;;4.23;;
9224;SDS011;4647;48.072;11.616;2023-07-29T15:10:47;4.43;;;4.03;;
9224;SDS011;4647;48.072;11.616;2023-07-29T15:13:15;4.30;;;3.83;;
9224;SDS011;4647;48.072;11.616;2023-07-29T15:15:44;5.47;;;4.17;;
9224;SDS011;4647;48.072;11.616;2023-07-29T15:18:15;5.63;;;4.20;;
9224;SDS011;4647;48.072;11.616;2023-07-29T15:20:46;4.93;;;4.27;;